Time;durP1;ratioP1;P1;durP2;ratioP2;P2;SDS_P1;SDS_P2;PMS_P1;PMS_P2;Temp;Humidity;BMP_temperature;BMP_pressure;BME280_temperature;BME280_humidity;BME280_pressure;Samples;Min_cycle;Max_cycle;Signal;HPM_P1;HPM_P2
2023/08/14 00:01:37;;;;;;;8.73;5.28;;;;;;;;;;5031923;28;20017;-60
2023/08/14 00:04:03;;;;;;;9.52;5.85;;;;;;;;;;5015993;28;20037;-61
2023/08/14 00:06:28;;;;;;;8.75;5.40;;;;;;;;;;5014644;28;20040;-61
2023/08/14 00:08:54;;;;;;;9.10;6.00;;;;;;;;;;5013508;28;20033;-61
2023/08/14 00:11:19;;;;;;;9.93;5.35;;;;;;;;;;5015951;28;20029;-60
2023/08/14 00:13:51;;;;;;;8.25;4.93;;;;;;;;;;5015080;28;20037;-62
2023/08/14 00:16:17;;;;;;;7.85;4.93;;;;;;;;;;5016260;28;20033;-61
2023/08/14 00:18:42;;;;;;;8.77;4.72;;;;;;;;;;5016349;28;20029;-60
2023/08/14 00:21:08;;;;;;;7.10;4.55;;;;;;;;;;5016649;28;20034;-62
2023/08/14 00:23:33;;;;;;;7.97;4.97;;;;;;;;;;5016635;28;20021;-60
2023/08/14 00:25:59;;;;;;;6.90;4.68;;;;;;;;;;5016090;28;20075;-62
2023/08/14 00:28:25;;;;;;;7.60;4.32;;;;;;;;;;5016187;28;20091;-62
2023/08/14 00:30:50;;;;;;;7.57;4.43;;;;;;;;;;5016525;28;20025;-61
2023/08/14 00:33:16;;;;;;;7.35;5.00;;;;;;;;;;5016203;28;20037;-63
2023/08/14 00:35:41;;;;;;;6.68;4.53;;;;;;;;;;5017487;28;20029;-62
2023/08/14 00:38:07;;;;;;;8.20;4.68;;;;;;;;;;5015986;28;20364;-63
2023/08/14 00:40:32;;;;;;;7.05;4.43;;;;;;;;;;5016323;28;20423;-62
2023/08/14 00:42:58;;;;;;;6.45;4.45;;;;;;;;;;5016110;28;20025;-61
2023/08/14 00:45:23;;;;;;;6.43;4.18;;;;;;;;;;5013474;28;20030;-64
2023/08/14 00:47:49;;;;;;;6.35;4.03;;;;;;;;;;5028146;28;20036;-62
2023/08/14 00:50:16;;;;;;;6.13;3.92;;;;;;;;;;4997752;28;20186;-62
2023/08/14 00:52:43;;;;;;;5.07;3.63;;;;;;;;;;5015320;28;20021;-62
2023/08/14 00:55:11;;;;;;;5.88;3.90;;;;;;;;;;5030262;28;20513;-62
2023/08/14 00:57:38;;;;;;;6.35;4.28;;;;;;;;;;5014283;28;20384;-61
2023/08/14 01:00:05;;;;;;;6.15;3.90;;;;;;;;;;5011416;28;20529;-64
2023/08/14 01:02:30;;;;;;;5.95;3.60;;;;;;;;;;5030112;28;20108;-64
2023/08/14 01:04:58;;;;;;;7.35;3.92;;;;;;;;;;5032561;28;20137;-63
2023/08/14 01:07:24;;;;;;;6.28;3.63;;;;;;;;;;5031224;28;20028;-61
2023/08/14 01:09:50;;;;;;;5.85;3.53;;;;;;;;;;5030273;28;20034;-61
2023/08/14 01:12:22;;;;;;;5.55;3.65;;;;;;;;;;5013779;28;20377;-62
2023/08/14 01:14:54;;;;;;;6.88;3.67;;;;;;;;;;5031784;28;20033;-62
2023/08/14 01:17:22;;;;;;;6.55;3.70;;;;;;;;;;5015025;28;20029;-62
2023/08/14 01:19:51;;;;;;;5.72;3.30;;;;;;;;;;5015958;28;20033;-62
2023/08/14 01:22:46;;;;;;;5.53;3.42;;;;;;;;;;5031889;28;20022;-61
2023/08/14 01:25:11;;;;;;;;;;;;;;;;;;5016649;28;20029;-64
2023/08/14 01:27:40;;;;;;;4.75;3.17;;;;;;;;;;5019450;28;19916;-64
2023/08/14 01:30:08;;;;;;;5.40;3.58;;;;;;;;;;5019077;28;20049;-62
2023/08/14 01:32:33;;;;;;;6.05;3.30;;;;;;;;;;5019128;28;20428;-61
2023/08/14 01:34:59;;;;;;;6.53;3.20;;;;;;;;;;5015667;28;20125;-62
2023/08/14 01:37:28;;;;;;;4.35;3.22;;;;;;;;;;5019229;28;20439;-61
2023/08/14 01:40:17;;;;;;;5.32;3.10;;;;;;;;;;5019662;28;20028;-61
2023/08/14 01:42:44;;;;;;;6.40;3.30;;;;;;;;;;5013875;28;20021;-61
2023/08/14 01:45:14;;;;;;;5.05;3.20;;;;;;;;;;5001721;28;20396;-63
2023/08/14 01:47:40;;;;;;;5.53;3.10;;;;;;;;;;5000026;28;20033;-62
2023/08/14 01:50:07;;;;;;;4.05;2.83;;;;;;;;;;5018519;28;20530;-62
2023/08/14 01:52:32;;;;;;;5.40;2.92;;;;;;;;;;5002333;28;20041;-62
2023/08/14 01:54:59;;;;;;;6.10;3.10;;;;;;;;;;5018040;28;20095;-62
2023/08/14 01:57:25;;;;;;;5.68;3.22;;;;;;;;;;5000959;28;20101;-61
2023/08/14 01:59:50;;;;;;;7.10;2.90;;;;;;;;;;5034573;28;20048;-63
2023/08/14 02:02:16;;;;;;;4.72;2.90;;;;;;;;;;5011934;28;20057;-62
2023/08/14 02:04:41;;;;;;;6.68;3.20;;;;;;;;;;5034321;28;20036;-62
2023/08/14 02:07:10;;;;;;;7.88;3.20;;;;;;;;;;5017804;28;20034;-63
2023/08/14 02:09:35;;;;;;;7.38;2.97;;;;;;;;;;5033500;28;20033;-62
2023/08/14 02:12:01;;;;;;;6.28;2.50;;;;;;;;;;5017018;28;20022;-64
2023/08/14 02:14:27;;;;;;;5.47;2.80;;;;;;;;;;5015357;28;20041;-62
2023/08/14 02:16:52;;;;;;;5.45;2.83;;;;;;;;;;5033684;28;21153;-62
2023/08/14 02:19:21;;;;;;;5.80;2.53;;;;;;;;;;5034299;28;20030;-62
2023/08/14 02:21:46;;;;;;;6.38;2.95;;;;;;;;;;5017718;28;20044;-61
2023/08/14 02:24:12;;;;;;;6.30;2.75;;;;;;;;;;5014330;28;20018;-62
2023/08/14 02:26:37;;;;;;;6.32;2.75;;;;;;;;;;5015943;28;20108;-62
2023/08/14 02:29:03;;;;;;;6.95;2.90;;;;;;;;;;5017348;28;20068;-62
2023/08/14 02:31:29;;;;;;;6.72;2.78;;;;;;;;;;5033354;28;20029;-62
2023/08/14 02:33:57;;;;;;;6.38;2.75;;;;;;;;;;5015480;28;20075;-61
2023/08/14 02:36:23;;;;;;;4.97;2.50;;;;;;;;;;5032026;28;20095;-63
2023/08/14 02:38:48;;;;;;;5.57;2.70;;;;;;;;;;5033785;28;20037;-62
2023/08/14 02:41:14;;;;;;;5.22;2.50;;;;;;;;;;5017601;28;20036;-61
2023/08/14 02:43:39;;;;;;;6.53;2.90;;;;;;;;;;5015741;28;20059;-63
2023/08/14 02:46:05;;;;;;;5.10;2.45;;;;;;;;;;5016213;28;20384;-63
2023/08/14 02:48:30;;;;;;;5.93;2.47;;;;;;;;;;5031569;28;20032;-62
2023/08/14 02:50:56;;;;;;;5.47;2.30;;;;;;;;;;5017685;28;20498;-62
2023/08/14 02:53:21;;;;;;;4.75;2.33;;;;;;;;;;5016452;28;20460;-62
2023/08/14 02:55:53;;;;;;;4.75;2.38;;;;;;;;;;5016625;28;20057;-62
2023/08/14 02:58:19;;;;;;;5.55;2.50;;;;;;;;;;5016991;28;20037;-61
2023/08/14 03:00:47;;;;;;;5.03;2.20;;;;;;;;;;5012856;28;20025;-61
2023/08/14 03:03:13;;;;;;;4.00;2.30;;;;;;;;;;5032184;28;20029;-62
2023/08/14 03:05:38;;;;;;;5.07;2.42;;;;;;;;;;5017056;28;20087;-62
2023/08/14 03:08:04;;;;;;;4.35;2.50;;;;;;;;;;5016580;28;20037;-62
2023/08/14 03:10:30;;;;;;;3.53;2.00;;;;;;;;;;5016108;28;20452;-62
2023/08/14 03:13:00;;;;;;;5.85;3.28;;;;;;;;;;5015990;28;20083;-63
2023/08/14 03:15:25;;;;;;;5.47;3.17;;;;;;;;;;5042568;28;20038;-62
2023/08/14 03:17:51;;;;;;;5.03;2.25;;;;;;;;;;5031633;28;20530;-62
2023/08/14 03:20:16;;;;;;;4.40;2.17;;;;;;;;;;5014242;28;20033;-62
2023/08/14 03:22:42;;;;;;;5.40;2.83;;;;;;;;;;5016734;28;20479;-62
2023/08/14 03:25:08;;;;;;;4.85;2.67;;;;;;;;;;5016177;28;20427;-62
2023/08/14 03:27:33;;;;;;;5.88;2.85;;;;;;;;;;5016965;28;20049;-62
2023/08/14 03:29:59;;;;;;;5.25;2.80;;;;;;;;;;5016110;28;20383;-64
2023/08/14 03:32:27;;;;;;;5.50;3.20;;;;;;;;;;5015659;28;20416;-62
2023/08/14 03:35:10;;;;;;;4.28;2.83;;;;;;;;;;5030433;28;20036;-61
2023/08/14 03:37:38;;;;;;;5.55;3.08;;;;;;;;;;5016539;28;20124;-61
2023/08/14 03:40:07;;;;;;;6.22;3.22;;;;;;;;;;5032963;28;20104;-61
2023/08/14 03:42:32;;;;;;;5.72;3.15;;;;;;;;;;5017213;28;20028;-61
2023/08/14 03:45:00;;;;;;;6.43;3.10;;;;;;;;;;5017134;28;20033;-61
2023/08/14 03:47:25;;;;;;;4.90;2.88;;;;;;;;;;5016087;28;20065;-61
2023/08/14 03:49:51;;;;;;;5.50;3.55;;;;;;;;;;5016842;28;20087;-62
2023/08/14 03:52:16;;;;;;;4.18;2.92;;;;;;;;;;5017142;28;20017;-61
2023/08/14 03:54:42;;;;;;;4.85;3.00;;;;;;;;;;5016854;28;20025;-61
2023/08/14 03:57:08;;;;;;;4.88;3.10;;;;;;;;;;5015740;28;20032;-61
2023/08/14 03:59:33;;;;;;;5.45;3.03;;;;;;;;;;5015591;28;20392;-61
2023/08/14 04:01:59;;;;;;;4.22;2.78;;;;;;;;;;5013918;28;20040;-64
2023/08/14 04:04:24;;;;;;;6.57;2.90;;;;;;;;;;5033129;28;20030;-61
2023/08/14 04:06:50;;;;;;;4.55;2.67;;;;;;;;;;5014449;28;20083;-63
2023/08/14 04:09:15;;;;;;;4.90;3.05;;;;;;;;;;5014752;28;20029;-62
2023/08/14 04:11:41;;;;;;;5.00;2.85;;;;;;;;;;5031895;28;20531;-62
2023/08/14 04:14:06;;;;;;;4.47;2.90;;;;;;;;;;5015722;28;20034;-61
2023/08/14 04:16:41;;;;;;;5.07;2.63;;;;;;;;;;5029355;28;20115;-63
2023/08/14 04:19:08;;;;;;;6.10;3.00;;;;;;;;;;5032785;28;20404;-61
2023/08/14 04:21:33;;;;;;;4.32;2.80;;;;;;;;;;4998554;28;20135;-61
2023/08/14 04:23:59;;;;;;;4.25;2.58;;;;;;;;;;5013751;28;20076;-61
2023/08/14 04:26:24;;;;;;;4.40;2.33;;;;;;;;;;5013984;28;20070;-61
2023/08/14 04:28:50;;;;;;;4.72;2.63;;;;;;;;;;5016068;28;20053;-62
2023/08/14 04:31:16;;;;;;;4.45;2.30;;;;;;;;;;5013908;28;20124;-62
2023/08/14 04:33:41;;;;;;;4.82;2.17;;;;;;;;;;5014601;28;20072;-62
2023/08/14 04:36:07;;;;;;;4.35;2.95;;;;;;;;;;5014197;28;20069;-62
2023/08/14 04:38:32;;;;;;;3.78;2.40;;;;;;;;;;5014341;28;20021;-64
2023/08/14 04:41:01;;;;;;;3.70;2.42;;;;;;;;;;5029849;28;20080;-62
2023/08/14 04:43:31;;;;;;;4.43;2.40;;;;;;;;;;5031637;28;20112;-62
2023/08/14 04:45:57;;;;;;;5.50;2.33;;;;;;;;;;5012952;28;20029;-63
2023/08/14 04:48:25;;;;;;;3.28;2.35;;;;;;;;;;5028103;28;20037;-61
2023/08/14 04:50:51;;;;;;;3.33;2.20;;;;;;;;;;5031408;28;20103;-62
2023/08/14 04:53:19;;;;;;;4.03;2.60;;;;;;;;;;5014284;28;20057;-63
2023/08/14 04:55:47;;;;;;;3.28;2.08;;;;;;;;;;5044764;28;20044;-62
2023/08/14 04:58:15;;;;;;;3.40;2.22;;;;;;;;;;5014068;28;20100;-62
2023/08/14 05:00:41;;;;;;;3.92;2.45;;;;;;;;;;5028613;28;20175;-63
2023/08/14 05:03:09;;;;;;;3.95;2.13;;;;;;;;;;5029380;28;20120;-64
2023/08/14 05:05:35;;;;;;;3.55;2.40;;;;;;;;;;5027644;28;20457;-62
2023/08/14 05:08:00;;;;;;;3.33;1.98;;;;;;;;;;5009241;28;20041;-62
2023/08/14 05:10:26;;;;;;;4.18;2.10;;;;;;;;;;5029193;28;20494;-61
2023/08/14 05:12:51;;;;;;;2.97;2.08;;;;;;;;;;5014894;28;20010;-62
2023/08/14 05:15:17;;;;;;;3.38;2.15;;;;;;;;;;5012874;28;20044;-63
2023/08/14 05:17:42;;;;;;;3.38;2.20;;;;;;;;;;5032892;28;20419;-63
2023/08/14 05:20:09;;;;;;;4.07;1.92;;;;;;;;;;5015860;28;20021;-64
2023/08/14 05:22:34;;;;;;;3.15;1.70;;;;;;;;;;5015958;28;20018;-62
2023/08/14 05:25:00;;;;;;;3.45;2.17;;;;;;;;;;5015877;28;20105;-61
2023/08/14 05:27:26;;;;;;;4.00;2.03;;;;;;;;;;5015169;28;20048;-61
2023/08/14 05:29:51;;;;;;;3.90;2.20;;;;;;;;;;5015906;28;20025;-62
2023/08/14 05:32:17;;;;;;;3.72;2.13;;;;;;;;;;5015188;28;20033;-62
2023/08/14 05:34:43;;;;;;;4.07;1.90;;;;;;;;;;5015546;28;20125;-63
2023/08/14 05:37:08;;;;;;;3.33;1.88;;;;;;;;;;5015491;28;20095;-62
2023/08/14 05:39:35;;;;;;;3.67;1.90;;;;;;;;;;5014045;28;20041;-63
2023/08/14 05:42:00;;;;;;;3.35;2.10;;;;;;;;;;5031502;28;20052;-61
2023/08/14 05:44:26;;;;;;;2.65;1.90;;;;;;;;;;5013397;28;20123;-64
2023/08/14 05:46:51;;;;;;;2.40;1.77;;;;;;;;;;5030050;28;20030;-63
2023/08/14 05:49:17;;;;;;;3.65;2.28;;;;;;;;;;5031490;28;20063;-62
2023/08/14 05:51:45;;;;;;;2.65;1.88;;;;;;;;;;5014660;28;20048;-62
2023/08/14 05:54:11;;;;;;;2.78;1.75;;;;;;;;;;5012569;28;20037;-62
2023/08/14 05:56:36;;;;;;;2.42;1.73;;;;;;;;;;5011747;28;20033;-62
2023/08/14 05:59:02;;;;;;;4.00;2.13;;;;;;;;;;5009113;28;20029;-62
2023/08/14 06:01:27;;;;;;;2.97;1.65;;;;;;;;;;5012013;28;20488;-64
2023/08/14 06:03:54;;;;;;;3.17;1.70;;;;;;;;;;5030684;28;20034;-62
2023/08/14 06:06:20;;;;;;;2.42;1.65;;;;;;;;;;5014034;28;20032;-62
2023/08/14 06:08:45;;;;;;;7.97;4.15;;;;;;;;;;5011744;28;20434;-62
2023/08/14 06:11:11;;;;;;;18.80;7.60;;;;;;;;;;5032789;28;20021;-62
2023/08/14 06:13:41;;;;;;;9.60;3.80;;;;;;;;;;5015729;28;20128;-62
2023/08/14 06:16:07;;;;;;;7.85;3.42;;;;;;;;;;5031419;28;20030;-64
2023/08/14 06:18:32;;;;;;;7.88;3.75;;;;;;;;;;5032919;28;20080;-63
2023/08/14 06:20:58;;;;;;;10.05;4.75;;;;;;;;;;5034090;28;20065;-64
2023/08/14 06:23:23;;;;;;;11.80;4.60;;;;;;;;;;5017529;28;20017;-63
2023/08/14 06:25:52;;;;;;;12.52;6.05;;;;;;;;;;5030640;28;20026;-63
2023/08/14 06:28:17;;;;;;;13.60;5.82;;;;;;;;;;5034217;28;20095;-62
2023/08/14 06:30:43;;;;;;;11.13;4.90;;;;;;;;;;5016802;28;20025;-63
2023/08/14 06:33:11;;;;;;;10.30;4.93;;;;;;;;;;5000196;28;20041;-63
2023/08/14 06:35:36;;;;;;;13.40;5.68;;;;;;;;;;5033185;28;20034;-63
2023/08/14 06:38:02;;;;;;;11.60;5.70;;;;;;;;;;5016599;28;20032;-63
2023/08/14 06:40:28;;;;;;;12.52;6.00;;;;;;;;;;5017076;28;20472;-62
2023/08/14 06:42:55;;;;;;;11.60;6.00;;;;;;;;;;5018421;28;20032;-62
2023/08/14 06:45:21;;;;;;;15.80;6.55;;;;;;;;;;5018117;28;20029;-62
2023/08/14 06:47:47;;;;;;;11.88;6.18;;;;;;;;;;5016572;28;20044;-62
2023/08/14 06:50:13;;;;;;;12.23;5.70;;;;;;;;;;5017196;28;20471;-63
2023/08/14 06:52:39;;;;;;;11.95;6.43;;;;;;;;;;5016084;28;20034;-62
2023/08/14 06:55:04;;;;;;;14.15;6.70;;;;;;;;;;5016711;28;20044;-63
2023/08/14 06:57:30;;;;;;;12.43;7.07;;;;;;;;;;5017092;28;20030;-62
2023/08/14 06:59:55;;;;;;;13.82;7.25;;;;;;;;;;5032311;28;20521;-63
2023/08/14 07:02:23;;;;;;;12.70;7.68;;;;;;;;;;5029191;28;20099;-63
2023/08/14 07:04:49;;;;;;;15.05;8.65;;;;;;;;;;5034935;28;20092;-62
2023/08/14 07:07:14;;;;;;;13.30;9.05;;;;;;;;;;5017280;28;20038;-62
2023/08/14 07:09:40;;;;;;;15.20;9.77;;;;;;;;;;5015415;28;20021;-62
2023/08/14 07:12:08;;;;;;;16.17;9.38;;;;;;;;;;5016927;28;20029;-62
2023/08/14 07:14:33;;;;;;;13.65;9.50;;;;;;;;;;5034642;28;20029;-62
2023/08/14 07:16:59;;;;;;;14.50;10.90;;;;;;;;;;5013954;28;20052;-64
2023/08/14 07:19:24;;;;;;;16.20;11.75;;;;;;;;;;5029053;28;20123;-63
2023/08/14 07:21:50;;;;;;;16.88;13.50;;;;;;;;;;5033729;28;20028;-63
2023/08/14 07:24:15;;;;;;;17.73;15.20;;;;;;;;;;5017194;28;20029;-63
2023/08/14 07:26:41;;;;;;;18.50;16.27;;;;;;;;;;5017259;28;20029;-62
2023/08/14 07:29:07;;;;;;;19.75;17.90;;;;;;;;;;5017714;28;20029;-62
2023/08/14 07:31:32;;;;;;;21.70;19.90;;;;;;;;;;5017254;28;20403;-62
2023/08/14 07:33:58;;;;;;;24.58;22.35;;;;;;;;;;5017432;28;20037;-63
2023/08/14 07:36:23;;;;;;;26.67;24.38;;;;;;;;;;5017187;28;20079;-63
2023/08/14 07:38:49;;;;;;;28.95;26.67;;;;;;;;;;5017549;28;20029;-62
2023/08/14 07:41:14;;;;;;;30.52;28.25;;;;;;;;;;5016627;28;20029;-65
2023/08/14 07:43:40;;;;;;;33.08;30.73;;;;;;;;;;5016071;28;20029;-63
2023/08/14 07:46:07;;;;;;;37.85;35.13;;;;;;;;;;5033680;28;20017;-64
2023/08/14 07:48:33;;;;;;;39.17;36.65;;;;;;;;;;5017136;28;20028;-64
2023/08/14 07:50:58;;;;;;;41.95;39.25;;;;;;;;;;5017303;28;20025;-65
2023/08/14 07:53:24;;;;;;;43.38;40.47;;;;;;;;;;5017040;28;20397;-63
2023/08/14 07:55:49;;;;;;;46.65;43.65;;;;;;;;;;5017142;28;20032;-64
2023/08/14 07:58:16;;;;;;;48.78;45.78;;;;;;;;;;5017053;28;20453;-64
2023/08/14 08:00:42;;;;;;;52.95;49.75;;;;;;;;;;5016931;28;20036;-64
2023/08/14 08:03:07;;;;;;;54.60;51.20;;;;;;;;;;5016031;28;20037;-63
2023/08/14 08:05:36;;;;;;;57.88;54.47;;;;;;;;;;5016887;28;20021;-66
2023/08/14 08:08:02;;;;;;;60.28;56.97;;;;;;;;;;5016944;28;20033;-64
2023/08/14 08:10:27;;;;;;;63.33;59.63;;;;;;;;;;5016756;28;20029;-64
2023/08/14 08:12:53;;;;;;;66.10;62.03;;;;;;;;;;5016857;28;20116;-64
2023/08/14 08:15:18;;;;;;;70.97;66.78;;;;;;;;;;5016531;28;20041;-64
2023/08/14 08:17:45;;;;;;;73.00;68.70;;;;;;;;;;5015471;28;20113;-62
2023/08/14 08:20:11;;;;;;;71.85;67.85;;;;;;;;;;5031088;28;20499;-62
2023/08/14 08:22:37;;;;;;;77.85;73.53;;;;;;;;;;5014801;28;20030;-62
2023/08/14 08:25:03;;;;;;;82.13;77.40;;;;;;;;;;5014771;28;20032;-62
2023/08/14 08:27:29;;;;;;;86.88;81.97;;;;;;;;;;5030963;28;20104;-62
2023/08/14 08:29:55;;;;;;;84.47;79.60;;;;;;;;;;5031246;28;20076;-62
2023/08/14 08:32:21;;;;;;;83.57;79.07;;;;;;;;;;5014925;28;20026;-62
2023/08/14 08:34:46;;;;;;;79.78;75.50;;;;;;;;;;5014349;28;20044;-62
2023/08/14 08:37:12;;;;;;;82.18;77.38;;;;;;;;;;5016264;28;20366;-63
2023/08/14 08:39:37;;;;;;;79.32;74.95;;;;;;;;;;5016559;28;20121;-63
2023/08/14 08:42:05;;;;;;;77.82;73.53;;;;;;;;;;5016482;28;20150;-61
2023/08/14 08:44:32;;;;;;;76.25;71.95;;;;;;;;;;5016391;28;20030;-62
2023/08/14 08:47:00;;;;;;;76.70;72.30;;;;;;;;;;5032790;28;20464;-62
2023/08/14 08:49:26;;;;;;;76.28;72.03;;;;;;;;;;5016833;28;20029;-62
2023/08/14 08:51:52;;;;;;;72.65;68.50;;;;;;;;;;5016232;28;20396;-62
2023/08/14 08:54:18;;;;;;;72.80;68.57;;;;;;;;;;5015775;28;20044;-61
2023/08/14 08:56:44;;;;;;;72.05;67.75;;;;;;;;;;5017088;28;20022;-63
2023/08/14 08:59:11;;;;;;;61.83;58.08;;;;;;;;;;5016304;28;20234;-62
2023/08/14 09:01:46;;;;;;;69.90;65.78;;;;;;;;;;5017098;28;20022;-62
2023/08/14 09:04:11;;;;;;;69.68;65.63;;;;;;;;;;5016161;28;20483;-62
2023/08/14 09:06:37;;;;;;;68.30;64.18;;;;;;;;;;5016122;28;20025;-61
2023/08/14 09:09:04;;;;;;;53.60;50.50;;;;;;;;;;5016020;28;20025;-62
2023/08/14 09:11:30;;;;;;;46.72;43.97;;;;;;;;;;5016766;28;20040;-62
2023/08/14 09:13:55;;;;;;;42.92;40.33;;;;;;;;;;5015965;28;20468;-63
2023/08/14 09:16:21;;;;;;;33.47;30.90;;;;;;;;;;5016053;28;20029;-62
2023/08/14 09:18:46;;;;;;;25.42;23.73;;;;;;;;;;5016104;28;20041;-63
2023/08/14 09:21:12;;;;;;;21.73;19.95;;;;;;;;;;5015989;28;20083;-62
2023/08/14 09:23:39;;;;;;;20.20;18.88;;;;;;;;;;4999690;28;20091;-62
2023/08/14 09:26:04;;;;;;;17.13;15.80;;;;;;;;;;5015982;28;20029;-62
2023/08/14 09:28:30;;;;;;;14.20;13.10;;;;;;;;;;4999595;28;20029;-63
2023/08/14 09:31:06;;;;;;;12.15;11.20;;;;;;;;;;5015987;28;20384;-64
2023/08/14 09:33:32;;;;;;;13.00;11.90;;;;;;;;;;5015530;28;20432;-62
2023/08/14 09:35:58;;;;;;;10.90;10.13;;;;;;;;;;5015925;28;20025;-61
2023/08/14 09:38:24;;;;;;;10.40;9.50;;;;;;;;;;5015858;28;20033;-61
2023/08/14 09:40:54;;;;;;;10.65;9.75;;;;;;;;;;4999561;28;20033;-62
2023/08/14 09:43:20;;;;;;;8.30;7.50;;;;;;;;;;5015843;28;20067;-61
2023/08/14 09:45:46;;;;;;;7.68;7.07;;;;;;;;;;5016156;28;20025;-62
2023/08/14 09:48:12;;;;;;;7.25;6.65;;;;;;;;;;5019586;28;20025;-63
2023/08/14 09:50:37;;;;;;;5.88;5.28;;;;;;;;;;5018547;28;20018;-62
2023/08/14 09:53:03;;;;;;;6.38;5.82;;;;;;;;;;5014414;28;20066;-62
2023/08/14 09:55:29;;;;;;;7.82;5.03;;;;;;;;;;5018297;28;20112;-62
2023/08/14 09:57:55;;;;;;;6.13;4.70;;;;;;;;;;5019336;28;20022;-62
2023/08/14 10:00:24;;;;;;;5.53;3.90;;;;;;;;;;5035676;28;20044;-62
2023/08/14 10:02:51;;;;;;;6.07;3.78;;;;;;;;;;5019105;28;20121;-62
2023/08/14 10:05:18;;;;;;;5.43;3.60;;;;;;;;;;5019301;28;20033;-62
2023/08/14 10:07:43;;;;;;;4.20;3.60;;;;;;;;;;5019174;28;20036;-62
2023/08/14 10:10:11;;;;;;;4.10;3.13;;;;;;;;;;5030440;28;20037;-64
2023/08/14 10:12:50;;;;;;;4.38;3.10;;;;;;;;;;5035234;28;20097;-62
2023/08/14 10:15:17;;;;;;;4.20;3.20;;;;;;;;;;5029366;28;20040;-62
2023/08/14 10:17:43;;;;;;;4.13;3.00;;;;;;;;;;5038600;28;20046;-61
2023/08/14 10:20:10;;;;;;;4.10;2.83;;;;;;;;;;5038688;28;20024;-62
2023/08/14 10:22:36;;;;;;;4.22;2.53;;;;;;;;;;5022076;28;20033;-62
2023/08/14 10:25:03;;;;;;;3.38;2.20;;;;;;;;;;5038676;28;20033;-62
2023/08/14 10:27:29;;;;;;;3.80;2.40;;;;;;;;;;5050759;28;20108;-62
2023/08/14 10:29:55;;;;;;;3.83;2.20;;;;;;;;;;5053204;28;20108;-61
2023/08/14 10:32:21;;;;;;;3.70;2.03;;;;;;;;;;5036804;28;20028;-62
2023/08/14 10:34:48;;;;;;;5.45;1.95;;;;;;;;;;5003154;28;20091;-62
2023/08/14 10:37:27;;;;;;;4.40;2.35;;;;;;;;;;5030014;28;20025;-64
2023/08/14 10:39:56;;;;;;;3.47;1.80;;;;;;;;;;5016743;28;20034;-64
2023/08/14 10:42:22;;;;;;;3.88;2.00;;;;;;;;;;5015462;28;20017;-65
2023/08/14 10:44:48;;;;;;;3.88;1.77;;;;;;;;;;5017468;28;20028;-64
2023/08/14 10:47:14;;;;;;;3.95;1.73;;;;;;;;;;5017650;28;20032;-64
2023/08/14 10:49:48;;;;;;;4.05;1.88;;;;;;;;;;5025185;28;20017;-65
2023/08/14 10:52:15;;;;;;;4.10;1.70;;;;;;;;;;5037874;28;20102;-65
2023/08/14 10:54:40;;;;;;;4.00;1.80;;;;;;;;;;5036488;28;20488;-65
2023/08/14 10:57:09;;;;;;;4.35;2.03;;;;;;;;;;5017709;28;20029;-66
2023/08/14 10:59:35;;;;;;;2.97;1.70;;;;;;;;;;5018367;28;20102;-65
2023/08/14 11:02:05;;;;;;;4.55;1.65;;;;;;;;;;5018142;28;20385;-65
2023/08/14 11:04:31;;;;;;;3.90;1.80;;;;;;;;;;5017911;28;20103;-65
2023/08/14 11:06:59;;;;;;;5.50;1.80;;;;;;;;;;5017966;28;20511;-66
2023/08/14 11:09:32;;;;;;;2.97;1.60;;;;;;;;;;5017977;28;20032;-66
2023/08/14 11:11:58;;;;;;;;;;;;;;;;;;5018260;28;20017;-66
2023/08/14 11:14:23;;;;;;;2.72;1.60;;;;;;;;;;5022179;28;19924;-66
2023/08/14 11:16:49;;;;;;;3.53;1.65;;;;;;;;;;5037639;28;20017;-65
2023/08/14 11:19:17;;;;;;;3.78;1.65;;;;;;;;;;5037286;28;20367;-65
2023/08/14 11:21:45;;;;;;;4.18;1.50;;;;;;;;;;5026711;28;20453;-66
2023/08/14 11:24:11;;;;;;;3.38;1.58;;;;;;;;;;5017715;28;20047;-66
2023/08/14 11:26:36;;;;;;;5.30;1.70;;;;;;;;;;5017690;28;20382;-66
2023/08/14 11:29:02;;;;;;;3.38;1.50;;;;;;;;;;5034064;28;20068;-65
2023/08/14 11:31:28;;;;;;;2.92;1.50;;;;;;;;;;5017980;28;20040;-64
2023/08/14 11:33:54;;;;;;;3.13;1.40;;;;;;;;;;5048792;28;20115;-66
2023/08/14 11:36:19;;;;;;;4.43;1.70;;;;;;;;;;5026275;28;20059;-66
2023/08/14 11:38:45;;;;;;;3.50;1.40;;;;;;;;;;5020491;28;20071;-65
2023/08/14 11:41:10;;;;;;;4.18;1.60;;;;;;;;;;5020406;28;20036;-65
2023/08/14 11:43:36;;;;;;;2.75;1.30;;;;;;;;;;5037179;28;20532;-66
2023/08/14 11:46:02;;;;;;;2.65;1.10;;;;;;;;;;5037197;28;20071;-66
2023/08/14 11:48:28;;;;;;;3.58;1.35;;;;;;;;;;5037196;28;20017;-65
2023/08/14 11:50:53;;;;;;;3.55;1.65;;;;;;;;;;5029958;28;20022;-66
2023/08/14 11:53:19;;;;;;;2.40;1.48;;;;;;;;;;5028735;28;20028;-65
2023/08/14 11:55:45;;;;;;;3.72;1.38;;;;;;;;;;5036506;28;20025;-65
2023/08/14 11:58:11;;;;;;;3.38;1.50;;;;;;;;;;5018563;28;20091;-65
2023/08/14 12:00:37;;;;;;;3.03;1.50;;;;;;;;;;5015372;28;20018;-65
2023/08/14 12:03:02;;;;;;;2.72;1.33;;;;;;;;;;5012064;28;20034;-66
2023/08/14 12:05:28;;;;;;;3.20;1.40;;;;;;;;;;5016849;28;20013;-66
2023/08/14 12:07:53;;;;;;;5.10;1.50;;;;;;;;;;5025097;28;20053;-65
2023/08/14 12:10:19;;;;;;;2.95;1.45;;;;;;;;;;5015450;28;20499;-64
2023/08/14 12:12:45;;;;;;;2.50;1.40;;;;;;;;;;5015254;28;20083;-64
2023/08/14 12:15:10;;;;;;;3.80;1.50;;;;;;;;;;5016308;28;20476;-64
2023/08/14 12:17:37;;;;;;;2.42;1.30;;;;;;;;;;5016790;28;20021;-64
2023/08/14 12:20:06;;;;;;;3.08;1.40;;;;;;;;;;5032761;28;20021;-65
2023/08/14 12:22:32;;;;;;;3.90;1.55;;;;;;;;;;5016668;28;20115;-64
2023/08/14 12:24:59;;;;;;;3.08;1.50;;;;;;;;;;5033218;28;20413;-65
2023/08/14 12:27:26;;;;;;;3.88;1.40;;;;;;;;;;5033828;28;20379;-65
2023/08/14 12:29:53;;;;;;;4.88;1.60;;;;;;;;;;5016679;28;20468;-65
2023/08/14 12:32:19;;;;;;;4.68;1.60;;;;;;;;;;5016608;28;20038;-65
2023/08/14 12:34:45;;;;;;;4.50;1.50;;;;;;;;;;5016417;28;20491;-65
2023/08/14 12:37:12;;;;;;;5.30;1.60;;;;;;;;;;5016551;28;20037;-66
2023/08/14 12:39:40;;;;;;;4.15;1.60;;;;;;;;;;5034720;28;20063;-63
2023/08/14 12:42:06;;;;;;;2.75;1.35;;;;;;;;;;5026035;28;20554;-65
2023/08/14 12:44:32;;;;;;;5.82;1.50;;;;;;;;;;5027441;28;20059;-64
2023/08/14 12:46:58;;;;;;;4.45;1.63;;;;;;;;;;5031693;28;20119;-65
2023/08/14 12:49:24;;;;;;;4.60;1.50;;;;;;;;;;5020703;28;20025;-65
2023/08/14 12:51:52;;;;;;;2.95;1.60;;;;;;;;;;5018176;28;20022;-65
2023/08/14 12:54:19;;;;;;;3.15;1.50;;;;;;;;;;5052104;28;20029;-65
2023/08/14 12:56:45;;;;;;;4.00;1.70;;;;;;;;;;5035858;28;20017;-65
2023/08/14 12:59:11;;;;;;;4.80;1.80;;;;;;;;;;5034612;28;20028;-65
2023/08/14 13:01:37;;;;;;;3.30;1.60;;;;;;;;;;5035899;28;20482;-65
2023/08/14 13:04:03;;;;;;;4.05;1.98;;;;;;;;;;5033113;28;20064;-65
2023/08/14 13:06:29;;;;;;;4.13;1.80;;;;;;;;;;5015150;28;20095;-65
2023/08/14 13:08:54;;;;;;;3.72;1.50;;;;;;;;;;5014542;28;20083;-63
2023/08/14 13:11:20;;;;;;;4.65;1.70;;;;;;;;;;5033201;28;20422;-65
2023/08/14 13:13:46;;;;;;;4.00;1.40;;;;;;;;;;5015353;28;20040;-64
2023/08/14 13:16:12;;;;;;;2.40;1.48;;;;;;;;;;5015858;28;20021;-64
2023/08/14 13:18:37;;;;;;;3.17;1.60;;;;;;;;;;5013414;28;20034;-64
2023/08/14 13:21:03;;;;;;;4.32;1.83;;;;;;;;;;5034292;28;20032;-64
2023/08/14 13:23:28;;;;;;;3.10;1.60;;;;;;;;;;5035353;28;20021;-64
2023/08/14 13:25:55;;;;;;;3.58;1.70;;;;;;;;;;5018253;28;20034;-65
2023/08/14 13:28:20;;;;;;;4.38;1.70;;;;;;;;;;5019138;28;20033;-63
2023/08/14 13:30:49;;;;;;;4.05;1.50;;;;;;;;;;5018929;28;20040;-64
2023/08/14 13:33:15;;;;;;;4.63;1.75;;;;;;;;;;5019617;28;20105;-64
2023/08/14 13:35:40;;;;;;;4.63;1.60;;;;;;;;;;5019377;28;20129;-63
2023/08/14 13:38:06;;;;;;;4.32;1.60;;;;;;;;;;5019717;28;20088;-66
2023/08/14 13:40:31;;;;;;;3.88;1.60;;;;;;;;;;5025555;28;20021;-64
2023/08/14 13:42:57;;;;;;;4.35;1.73;;;;;;;;;;5025128;28;20033;-64
2023/08/14 13:45:23;;;;;;;4.07;1.65;;;;;;;;;;5036418;28;20361;-64
2023/08/14 13:47:49;;;;;;;2.95;1.50;;;;;;;;;;5056699;28;20352;-64
2023/08/14 13:50:14;;;;;;;4.45;1.70;;;;;;;;;;5055810;28;20032;-64
2023/08/14 13:52:40;;;;;;;2.78;1.55;;;;;;;;;;5031320;28;20135;-64
2023/08/14 13:55:05;;;;;;;3.00;1.50;;;;;;;;;;5019194;28;20479;-64
2023/08/14 13:57:31;;;;;;;2.72;1.60;;;;;;;;;;5019407;28;20083;-64
2023/08/14 13:59:57;;;;;;;2.28;1.42;;;;;;;;;;5039058;28;20498;-64
2023/08/14 14:02:22;;;;;;;2.15;1.38;;;;;;;;;;5033441;28;20028;-64
2023/08/14 14:04:47;;;;;;;2.30;1.50;;;;;;;;;;5035101;28;20048;-64
2023/08/14 14:07:13;;;;;;;2.92;1.40;;;;;;;;;;5019161;28;20037;-64
2023/08/14 14:09:39;;;;;;;2.65;1.45;;;;;;;;;;5018374;28;20482;-64
2023/08/14 14:12:04;;;;;;;2.35;1.52;;;;;;;;;;5020599;28;20464;-63
2023/08/14 14:14:30;;;;;;;3.35;1.38;;;;;;;;;;4999387;28;20088;-62
2023/08/14 14:17:01;;;;;;;3.20;1.40;;;;;;;;;;5015667;28;20038;-64
2023/08/14 14:19:27;;;;;;;3.58;1.60;;;;;;;;;;5009519;28;20025;-62
2023/08/14 14:21:54;;;;;;;3.45;1.52;;;;;;;;;;5018030;28;20026;-62
2023/08/14 14:24:19;;;;;;;2.30;1.33;;;;;;;;;;5017888;28;20384;-64
2023/08/14 14:26:45;;;;;;;2.90;1.77;;;;;;;;;;5018399;28;20021;-64
2023/08/14 14:29:10;;;;;;;2.70;1.50;;;;;;;;;;5017783;28;20460;-63
2023/08/14 14:31:36;;;;;;;2.78;1.55;;;;;;;;;;5018100;28;20491;-63
2023/08/14 14:34:02;;;;;;;2.65;1.40;;;;;;;;;;5017830;28;20037;-63